sensor_id;sensor_type;location;lat;lon;timestamp;pressure;altitude;pressure_sealevel;temperature
69597;BMP180;56802;51.184;-115.558;2022-08-14T00:00:11;86429.80;;;
69597;BMP180;56802;51.184;-115.558;2022-08-14T00:02:42;86434.40;;;
69597;BMP180;56802;51.184;-115.558;2022-08-14T00:05:18;86431.40;;;
69597;BMP180;56802;51.184;-115.558;2022-08-14T00:07:48;86435.60;;;
69597;BMP180;56802;51.184;-115.558;2022-08-14T00:10:23;86433.60;;;
69597;BMP180;56802;51.184;-115.558;2022-08-14T00:13:13;86422.20;;;
69597;BMP180;56802;51.184;-115.558;2022-08-14T00:15:47;86418.40;;;
69597;BMP180;56802;51.184;-115.558;2022-08-14T00:18:21;86412.60;;;
69597;BMP180;56802;51.184;-115.558;2022-08-14T00:21:11;86418.00;;;
69597;BMP180;56802;51.184;-115.558;2022-08-14T00:23:41;86417.60;;;
69597;BMP180;56802;51.184;-115.558;2022-08-14T00:26:20;86416.00;;;
69597;BMP180;56802;51.184;-115.558;2022-08-14T00:28:51;86412.00;;;
69597;BMP180;56802;51.184;-115.558;2022-08-14T00:31:22;86409.40;;;
69597;BMP180;56802;51.184;-115.558;2022-08-14T00:34:11;86412.80;;;
69597;BMP180;56802;51.184;-115.558;2022-08-14T00:37:01;86413.60;;;
69597;BMP180;56802;51.184;-115.558;2022-08-14T00:39:30;86410.00;;;
69597;BMP180;56802;51.184;-115.558;2022-08-14T00:42:00;86409.20;;;
69597;BMP180;56802;51.184;-115.558;2022-08-14T00:44:29;86408.60;;;
69597;BMP180;56802;51.184;-115.558;2022-08-14T00:47:03;86409.80;;;
69597;BMP180;56802;51.184;-115.558;2022-08-14T00:49:37;86409.40;;;
69597;BMP180;56802;51.184;-115.558;2022-08-14T00:52:15;86402.60;;;
69597;BMP180;56802;51.184;-115.558;2022-08-14T00:54:48;86402.20;;;
69597;BMP180;56802;51.184;-115.558;2022-08-14T00:57:31;86401.60;;;
69597;BMP180;56802;51.184;-115.558;2022-08-14T01:00:08;86394.00;;;
69597;BMP180;56802;51.184;-115.558;2022-08-14T01:03:00;86393.20;;;
69597;BMP180;56802;51.184;-115.558;2022-08-14T01:05:32;86392.60;;;
69597;BMP180;56802;51.184;-115.558;2022-08-14T01:08:25;86382.60;;;
69597;BMP180;56802;51.184;-115.558;2022-08-14T01:11:14;86378.00;;;
69597;BMP180;56802;51.184;-115.558;2022-08-14T01:13:47;86371.80;;;
69597;BMP180;56802;51.184;-115.558;2022-08-14T01:16:28;86379.40;;;
69597;BMP180;56802;51.184;-115.558;2022-08-14T01:18:58;86376.00;;;
69597;BMP180;56802;51.184;-115.558;2022-08-14T01:21:47;86376.20;;;
69597;BMP180;56802;51.184;-115.558;2022-08-14T01:24:23;86372.80;;;
69597;BMP180;56802;51.184;-115.558;2022-08-14T01:27:03;86376.00;;;
69597;BMP180;56802;51.184;-115.558;2022-08-14T01:29:35;86366.60;;;
69597;BMP180;56802;51.184;-115.558;2022-08-14T01:32:25;86373.40;;;
69597;BMP180;56802;51.184;-115.558;2022-08-14T01:34:56;86372.20;;;
69597;BMP180;56802;51.184;-115.558;2022-08-14T01:37:46;86372.40;;;
69597;BMP180;56802;51.184;-115.558;2022-08-14T01:40:27;86364.20;;;
69597;BMP180;56802;51.184;-115.558;2022-08-14T01:43:15;86357.60;;;
69597;BMP180;56802;51.184;-115.558;2022-08-14T01:45:53;86359.40;;;
69597;BMP180;56802;51.184;-115.558;2022-08-14T01:48:33;86357.20;;;
69597;BMP180;56802;51.184;-115.558;2022-08-14T01:51:07;86356.00;;;
69597;BMP180;56802;51.184;-115.558;2022-08-14T01:53:50;86359.20;;;
69597;BMP180;56802;51.184;-115.558;2022-08-14T01:56:30;86354.40;;;
69597;BMP180;56802;51.184;-115.558;2022-08-14T01:59:20;86357.00;;;
69597;BMP180;56802;51.184;-115.558;2022-08-14T02:01:55;86347.80;;;
69597;BMP180;56802;51.184;-115.558;2022-08-14T02:04:33;86347.20;;;
69597;BMP180;56802;51.184;-115.558;2022-08-14T02:07:23;86345.60;;;
69597;BMP180;56802;51.184;-115.558;2022-08-14T02:10:12;86341.40;;;
69597;BMP180;56802;51.184;-115.558;2022-08-14T02:12:47;86347.20;;;
69597;BMP180;56802;51.184;-115.558;2022-08-14T02:15:24;86343.80;;;
69597;BMP180;56802;51.184;-115.558;2022-08-14T02:17:53;86351.80;;;
69597;BMP180;56802;51.184;-115.558;2022-08-14T02:20:22;86354.80;;;
69597;BMP180;56802;51.184;-115.558;2022-08-14T02:22:52;86359.20;;;
69597;BMP180;56802;51.184;-115.558;2022-08-14T02:25:22;86363.20;;;
69597;BMP180;56802;51.184;-115.558;2022-08-14T02:27:56;86364.60;;;
69597;BMP180;56802;51.184;-115.558;2022-08-14T02:30:46;86366.80;;;
69597;BMP180;56802;51.184;-115.558;2022-08-14T02:33:19;86370.40;;;
69597;BMP180;56802;51.184;-115.558;2022-08-14T02:35:50;86376.20;;;
69597;BMP180;56802;51.184;-115.558;2022-08-14T02:38:41;86375.40;;;
69597;BMP180;56802;51.184;-115.558;2022-08-14T02:41:12;86376.40;;;
69597;BMP180;56802;51.184;-115.558;2022-08-14T02:43:43;86379.60;;;
69597;BMP180;56802;51.184;-115.558;2022-08-14T02:46:15;86385.00;;;
69597;BMP180;56802;51.184;-115.558;2022-08-14T02:48:53;86382.60;;;
69597;BMP180;56802;51.184;-115.558;2022-08-14T02:51:34;86383.20;;;
69597;BMP180;56802;51.184;-115.558;2022-08-14T02:54:08;86386.60;;;
69597;BMP180;56802;51.184;-115.558;2022-08-14T02:56:46;86395.60;;;
69597;BMP180;56802;51.184;-115.558;2022-08-14T02:59:37;86393.20;;;
69597;BMP180;56802;51.184;-115.558;2022-08-14T03:02:10;86394.20;;;
69597;BMP180;56802;51.184;-115.558;2022-08-14T03:05:01;86402.80;;;
69597;BMP180;56802;51.184;-115.558;2022-08-14T03:07:30;86401.20;;;
69597;BMP180;56802;51.184;-115.558;2022-08-14T03:10:00;86403.40;;;
69597;BMP180;56802;51.184;-115.558;2022-08-14T03:12:49;86410.40;;;
69597;BMP180;56802;51.184;-115.558;2022-08-14T03:15:20;86413.00;;;
69597;BMP180;56802;51.184;-115.558;2022-08-14T03:17:51;86422.40;;;
69597;BMP180;56802;51.184;-115.558;2022-08-14T03:20:29;86427.00;;;
69597;BMP180;56802;51.184;-115.558;2022-08-14T03:22:58;86431.40;;;
69597;BMP180;56802;51.184;-115.558;2022-08-14T03:25:32;86437.80;;;
69597;BMP180;56802;51.184;-115.558;2022-08-14T03:28:09;86446.80;;;
69597;BMP180;56802;51.184;-115.558;2022-08-14T03:30:59;86445.20;;;
69597;BMP180;56802;51.184;-115.558;2022-08-14T03:33:29;86453.00;;;
69597;BMP180;56802;51.184;-115.558;2022-08-14T03:36:11;86453.40;;;
69597;BMP180;56802;51.184;-115.558;2022-08-14T03:39:05;86454.40;;;
69597;BMP180;56802;51.184;-115.558;2022-08-14T03:41:45;86461.20;;;
69597;BMP180;56802;51.184;-115.558;2022-08-14T03:44:16;86470.00;;;
69597;BMP180;56802;51.184;-115.558;2022-08-14T03:47:05;86468.20;;;
69597;BMP180;56802;51.184;-115.558;2022-08-14T03:49:38;86468.20;;;
69597;BMP180;56802;51.184;-115.558;2022-08-14T03:52:10;86469.60;;;
69597;BMP180;56802;51.184;-115.558;2022-08-14T03:55:01;86476.20;;;
69597;BMP180;56802;51.184;-115.558;2022-08-14T03:57:33;86475.60;;;
69597;BMP180;56802;51.184;-115.558;2022-08-14T04:00:11;86476.40;;;
69597;BMP180;56802;51.184;-115.558;2022-08-14T04:03:03;86477.80;;;
69597;BMP180;56802;51.184;-115.558;2022-08-14T04:05:35;86476.20;;;
69597;BMP180;56802;51.184;-115.558;2022-08-14T04:08:15;86472.80;;;
69597;BMP180;56802;51.184;-115.558;2022-08-14T04:10:58;86471.00;;;
69597;BMP180;56802;51.184;-115.558;2022-08-14T04:13:32;86479.20;;;
69597;BMP180;56802;51.184;-115.558;2022-08-14T04:16:11;86475.20;;;
69597;BMP180;56802;51.184;-115.558;2022-08-14T04:18:51;86476.00;;;
69597;BMP180;56802;51.184;-115.558;2022-08-14T04:21:24;86481.20;;;
69597;BMP180;56802;51.184;-115.558;2022-08-14T04:23:59;86480.20;;;
69597;BMP180;56802;51.184;-115.558;2022-08-14T04:26:33;86484.20;;;
69597;BMP180;56802;51.184;-115.558;2022-08-14T04:29:11;86489.00;;;
69597;BMP180;56802;51.184;-115.558;2022-08-14T04:31:44;86481.20;;;
69597;BMP180;56802;51.184;-115.558;2022-08-14T04:34:36;86485.00;;;
69597;BMP180;56802;51.184;-115.558;2022-08-14T04:37:22;86485.60;;;
69597;BMP180;56802;51.184;-115.558;2022-08-14T04:40:13;86494.40;;;
69597;BMP180;56802;51.184;-115.558;2022-08-14T04:43:07;86492.40;;;
69597;BMP180;56802;51.184;-115.558;2022-08-14T04:46:08;86495.60;;;
69597;BMP180;56802;51.184;-115.558;2022-08-14T04:48:57;86496.80;;;
69597;BMP180;56802;51.184;-115.558;2022-08-14T04:51:27;86496.00;;;
69597;BMP180;56802;51.184;-115.558;2022-08-14T04:54:13;86497.20;;;
69597;BMP180;56802;51.184;-115.558;2022-08-14T04:56:43;86499.80;;;
69597;BMP180;56802;51.184;-115.558;2022-08-14T04:59:12;86498.00;;;
69597;BMP180;56802;51.184;-115.558;2022-08-14T05:01:43;86504.20;;;
69597;BMP180;56802;51.184;-115.558;2022-08-14T05:04:20;86502.60;;;
69597;BMP180;56802;51.184;-115.558;2022-08-14T05:06:52;86508.60;;;
69597;BMP180;56802;51.184;-115.558;2022-08-14T05:09:23;86505.20;;;
69597;BMP180;56802;51.184;-115.558;2022-08-14T05:11:56;86510.80;;;
69597;BMP180;56802;51.184;-115.558;2022-08-14T05:14:45;86510.80;;;
69597;BMP180;56802;51.184;-115.558;2022-08-14T05:17:23;86511.40;;;
69597;BMP180;56802;51.184;-115.558;2022-08-14T05:20:12;86514.60;;;
69597;BMP180;56802;51.184;-115.558;2022-08-14T05:23:02;86509.40;;;
69597;BMP180;56802;51.184;-115.558;2022-08-14T05:25:31;86521.40;;;
69597;BMP180;56802;51.184;-115.558;2022-08-14T05:28:16;86524.00;;;
69597;BMP180;56802;51.184;-115.558;2022-08-14T05:30:53;86520.80;;;
69597;BMP180;56802;51.184;-115.558;2022-08-14T05:33:25;86524.80;;;
69597;BMP180;56802;51.184;-115.558;2022-08-14T05:35:59;86529.00;;;
69597;BMP180;56802;51.184;-115.558;2022-08-14T05:38:37;86530.80;;;
69597;BMP180;56802;51.184;-115.558;2022-08-14T05:41:11;86530.80;;;
69597;BMP180;56802;51.184;-115.558;2022-08-14T05:43:45;86533.20;;;
69597;BMP180;56802;51.184;-115.558;2022-08-14T05:46:20;86536.20;;;
69597;BMP180;56802;51.184;-115.558;2022-08-14T05:48:56;86539.20;;;
69597;BMP180;56802;51.184;-115.558;2022-08-14T05:51:26;86542.60;;;
69597;BMP180;56802;51.184;-115.558;2022-08-14T05:53:57;86546.20;;;
69597;BMP180;56802;51.184;-115.558;2022-08-14T05:56:46;86551.40;;;
69597;BMP180;56802;51.184;-115.558;2022-08-14T05:59:18;86548.80;;;
69597;BMP180;56802;51.184;-115.558;2022-08-14T06:02:03;86545.80;;;
69597;BMP180;56802;51.184;-115.558;2022-08-14T06:04:32;86548.80;;;
69597;BMP180;56802;51.184;-115.558;2022-08-14T06:07:02;86555.00;;;
69597;BMP180;56802;51.184;-115.558;2022-08-14T06:09:33;86552.80;;;
69597;BMP180;56802;51.184;-115.558;2022-08-14T06:12:08;86555.00;;;
69597;BMP180;56802;51.184;-115.558;2022-08-14T06:14:38;86553.60;;;
69597;BMP180;56802;51.184;-115.558;2022-08-14T06:17:09;86563.20;;;
69597;BMP180;56802;51.184;-115.558;2022-08-14T06:19:53;86562.40;;;
69597;BMP180;56802;51.184;-115.558;2022-08-14T06:22:23;86559.80;;;
69597;BMP180;56802;51.184;-115.558;2022-08-14T06:24:53;86565.40;;;
69597;BMP180;56802;51.184;-115.558;2022-08-14T06:27:22;86565.80;;;
69597;BMP180;56802;51.184;-115.558;2022-08-14T06:30:00;86568.20;;;
69597;BMP180;56802;51.184;-115.558;2022-08-14T06:32:32;86566.40;;;
69597;BMP180;56802;51.184;-115.558;2022-08-14T06:35:20;86572.20;;;
69597;BMP180;56802;51.184;-115.558;2022-08-14T06:37:58;86570.20;;;
69597;BMP180;56802;51.184;-115.558;2022-08-14T06:40:36;86570.20;;;
69597;BMP180;56802;51.184;-115.558;2022-08-14T06:43:12;86569.00;;;
69597;BMP180;56802;51.184;-115.558;2022-08-14T06:45:46;86570.80;;;
69597;BMP180;56802;51.184;-115.558;2022-08-14T06:48:24;86568.40;;;
69597;BMP180;56802;51.184;-115.558;2022-08-14T06:50:55;86576.40;;;
69597;BMP180;56802;51.184;-115.558;2022-08-14T06:53:24;86578.60;;;
69597;BMP180;56802;51.184;-115.558;2022-08-14T06:55:55;86584.60;;;
69597;BMP180;56802;51.184;-115.558;2022-08-14T06:58:29;86586.60;;;
69597;BMP180;56802;51.184;-115.558;2022-08-14T07:00:59;86585.00;;;
69597;BMP180;56802;51.184;-115.558;2022-08-14T07:03:57;86594.60;;;
69597;BMP180;56802;51.184;-115.558;2022-08-14T07:06:51;86596.60;;;
69597;BMP180;56802;51.184;-115.558;2022-08-14T07:09:27;86598.60;;;
69597;BMP180;56802;51.184;-115.558;2022-08-14T07:12:17;86602.60;;;
69597;BMP180;56802;51.184;-115.558;2022-08-14T07:15:07;86598.40;;;
69597;BMP180;56802;51.184;-115.558;2022-08-14T07:17:45;86605.00;;;
69597;BMP180;56802;51.184;-115.558;2022-08-14T07:20:19;86610.20;;;
69597;BMP180;56802;51.184;-115.558;2022-08-14T07:23:00;86613.80;;;
69597;BMP180;56802;51.184;-115.558;2022-08-14T07:25:37;86619.00;;;
69597;BMP180;56802;51.184;-115.558;2022-08-14T07:28:24;86617.80;;;
69597;BMP180;56802;51.184;-115.558;2022-08-14T07:30:56;86619.40;;;
69597;BMP180;56802;51.184;-115.558;2022-08-14T07:33:54;86623.40;;;
69597;BMP180;56802;51.184;-115.558;2022-08-14T07:36:25;86619.20;;;
69597;BMP180;56802;51.184;-115.558;2022-08-14T07:38:59;86618.80;;;
69597;BMP180;56802;51.184;-115.558;2022-08-14T07:41:30;86620.40;;;
69597;BMP180;56802;51.184;-115.558;2022-08-14T07:44:02;86625.00;;;
69597;BMP180;56802;51.184;-115.558;2022-08-14T07:46:51;86615.40;;;
69597;BMP180;56802;51.184;-115.558;2022-08-14T07:49:21;86621.20;;;
69597;BMP180;56802;51.184;-115.558;2022-08-14T07:51:52;86619.40;;;
69597;BMP180;56802;51.184;-115.558;2022-08-14T07:54:22;86620.40;;;
69597;BMP180;56802;51.184;-115.558;2022-08-14T07:57:01;86620.20;;;
69597;BMP180;56802;51.184;-115.558;2022-08-14T07:59:40;86626.40;;;
69597;BMP180;56802;51.184;-115.558;2022-08-14T08:02:12;86631.60;;;
69597;BMP180;56802;51.184;-115.558;2022-08-14T08:04:50;86634.60;;;
69597;BMP180;56802;51.184;-115.558;2022-08-14T08:07:28;86644.80;;;
69597;BMP180;56802;51.184;-115.558;2022-08-14T08:10:06;86639.40;;;
69597;BMP180;56802;51.184;-115.558;2022-08-14T08:13:19;86641.00;;;
69597;BMP180;56802;51.184;-115.558;2022-08-14T08:15:56;86640.20;;;
69597;BMP180;56802;51.184;-115.558;2022-08-14T08:18:27;86643.60;;;
69597;BMP180;56802;51.184;-115.558;2022-08-14T08:20:57;86640.00;;;
69597;BMP180;56802;51.184;-115.558;2022-08-14T08:23:29;86643.20;;;
69597;BMP180;56802;51.184;-115.558;2022-08-14T08:26:07;86647.80;;;
69597;BMP180;56802;51.184;-115.558;2022-08-14T08:28:36;86657.40;;;
69597;BMP180;56802;51.184;-115.558;2022-08-14T08:31:10;86665.20;;;
69597;BMP180;56802;51.184;-115.558;2022-08-14T08:33:41;86669.60;;;
69597;BMP180;56802;51.184;-115.558;2022-08-14T08:36:16;86674.20;;;
69597;BMP180;56802;51.184;-115.558;2022-08-14T08:38:49;86673.00;;;
69597;BMP180;56802;51.184;-115.558;2022-08-14T08:41:44;86675.20;;;
69597;BMP180;56802;51.184;-115.558;2022-08-14T08:44:27;86672.00;;;
69597;BMP180;56802;51.184;-115.558;2022-08-14T08:47:02;86668.40;;;
69597;BMP180;56802;51.184;-115.558;2022-08-14T08:49:41;86672.00;;;
69597;BMP180;56802;51.184;-115.558;2022-08-14T08:52:27;86675.60;;;
69597;BMP180;56802;51.184;-115.558;2022-08-14T08:55:09;86676.00;;;
69597;BMP180;56802;51.184;-115.558;2022-08-14T08:57:39;86674.60;;;
69597;BMP180;56802;51.184;-115.558;2022-08-14T09:00:17;86674.20;;;
69597;BMP180;56802;51.184;-115.558;2022-08-14T09:03:11;86672.80;;;
69597;BMP180;56802;51.184;-115.558;2022-08-14T09:08:32;86686.00;;;
69597;BMP180;56802;51.184;-115.558;2022-08-14T09:11:06;86682.60;;;
69597;BMP180;56802;51.184;-115.558;2022-08-14T09:13:52;86681.20;;;
69597;BMP180;56802;51.184;-115.558;2022-08-14T09:16:23;86688.20;;;
69597;BMP180;56802;51.184;-115.558;2022-08-14T09:18:53;86693.80;;;
69597;BMP180;56802;51.184;-115.558;2022-08-14T09:21:24;86691.00;;;
69597;BMP180;56802;51.184;-115.558;2022-08-14T09:23:58;86692.00;;;
69597;BMP180;56802;51.184;-115.558;2022-08-14T09:26:48;86691.40;;;
69597;BMP180;56802;51.184;-115.558;2022-08-14T09:29:19;86693.60;;;
69597;BMP180;56802;51.184;-115.558;2022-08-14T09:31:57;86696.60;;;
69597;BMP180;56802;51.184;-115.558;2022-08-14T09:35:02;86699.40;;;
69597;BMP180;56802;51.184;-115.558;2022-08-14T09:47:51;86707.80;;;
69597;BMP180;56802;51.184;-115.558;2022-08-14T09:50:54;86708.40;;;
69597;BMP180;56802;51.184;-115.558;2022-08-14T09:53:42;86708.60;;;
69597;BMP180;56802;51.184;-115.558;2022-08-14T09:56:44;86710.80;;;
69597;BMP180;56802;51.184;-115.558;2022-08-14T09:59:24;86708.80;;;
69597;BMP180;56802;51.184;-115.558;2022-08-14T10:02:03;86713.00;;;
69597;BMP180;56802;51.184;-115.558;2022-08-14T10:04:36;86715.60;;;
69597;BMP180;56802;51.184;-115.558;2022-08-14T10:07:13;86718.40;;;
69597;BMP180;56802;51.184;-115.558;2022-08-14T10:09:49;86722.00;;;
69597;BMP180;56802;51.184;-115.558;2022-08-14T10:12:46;86725.40;;;
69597;BMP180;56802;51.184;-115.558;2022-08-14T10:15:28;86731.00;;;
69597;BMP180;56802;51.184;-115.558;2022-08-14T10:18:14;86734.00;;;
69597;BMP180;56802;51.184;-115.558;2022-08-14T10:21:00;86735.20;;;
69597;BMP180;56802;51.184;-115.558;2022-08-14T10:23:46;86732.80;;;
69597;BMP180;56802;51.184;-115.558;2022-08-14T10:26:20;86736.20;;;
69597;BMP180;56802;51.184;-115.558;2022-08-14T10:29:08;86739.40;;;
69597;BMP180;56802;51.184;-115.558;2022-08-14T10:31:57;86740.60;;;
69597;BMP180;56802;51.184;-115.558;2022-08-14T10:34:33;86745.60;;;
69597;BMP180;56802;51.184;-115.558;2022-08-14T10:37:12;86746.80;;;
69597;BMP180;56802;51.184;-115.558;2022-08-14T10:39:59;86747.40;;;
69597;BMP180;56802;51.184;-115.558;2022-08-14T10:42:41;86753.00;;;
69597;BMP180;56802;51.184;-115.558;2022-08-14T10:45:24;86755.20;;;
69597;BMP180;56802;51.184;-115.558;2022-08-14T10:48:13;86760.40;;;
69597;BMP180;56802;51.184;-115.558;2022-08-14T10:51:05;86761.40;;;
69597;BMP180;56802;51.184;-115.558;2022-08-14T10:53:36;86756.60;;;
69597;BMP180;56802;51.184;-115.558;2022-08-14T10:56:11;86759.40;;;
69597;BMP180;56802;51.184;-115.558;2022-08-14T10:59:06;86764.40;;;
69597;BMP180;56802;51.184;-115.558;2022-08-14T11:01:38;86763.60;;;
69597;BMP180;56802;51.184;-115.558;2022-08-14T11:04:28;86765.00;;;
69597;BMP180;56802;51.184;-115.558;2022-08-14T11:06:59;86763.20;;;
69597;BMP180;56802;51.184;-115.558;2022-08-14T11:09:32;86768.20;;;
69597;BMP180;56802;51.184;-115.558;2022-08-14T11:12:02;86770.80;;;
69597;BMP180;56802;51.184;-115.558;2022-08-14T11:14:57;86765.20;;;
69597;BMP180;56802;51.184;-115.558;2022-08-14T11:17:33;86772.00;;;
69597;BMP180;56802;51.184;-115.558;2022-08-14T11:20:08;86770.80;;;
69597;BMP180;56802;51.184;-115.558;2022-08-14T11:22:43;86770.40;;;
69597;BMP180;56802;51.184;-115.558;2022-08-14T11:25:28;86775.20;;;
69597;BMP180;56802;51.184;-115.558;2022-08-14T11:28:12;86773.60;;;
69597;BMP180;56802;51.184;-115.558;2022-08-14T11:30:49;86772.60;;;
69597;BMP180;56802;51.184;-115.558;2022-08-14T11:33:26;86775.80;;;
69597;BMP180;56802;51.184;-115.558;2022-08-14T11:36:10;86781.20;;;
69597;BMP180;56802;51.184;-115.558;2022-08-14T11:38:45;86773.00;;;
69597;BMP180;56802;51.184;-115.558;2022-08-14T11:41:15;86772.40;;;
69597;BMP180;56802;51.184;-115.558;2022-08-14T11:43:48;86773.00;;;
69597;BMP180;56802;51.184;-115.558;2022-08-14T11:46:25;86781.40;;;
69597;BMP180;56802;51.184;-115.558;2022-08-14T11:49:04;86778.00;;;
69597;BMP180;56802;51.184;-115.558;2022-08-14T11:51:34;86780.60;;;
69597;BMP180;56802;51.184;-115.558;2022-08-14T11:54:22;86779.20;;;
69597;BMP180;56802;51.184;-115.558;2022-08-14T11:57:02;86783.00;;;
69597;BMP180;56802;51.184;-115.558;2022-08-14T11:59:32;86788.20;;;
69597;BMP180;56802;51.184;-115.558;2022-08-14T12:02:16;86790.20;;;
69597;BMP180;56802;51.184;-115.558;2022-08-14T12:05:05;86783.80;;;
69597;BMP180;56802;51.184;-115.558;2022-08-14T12:07:47;86784.80;;;
69597;BMP180;56802;51.184;-115.558;2022-08-14T12:10:19;86784.40;;;
69597;BMP180;56802;51.184;-115.558;2022-08-14T12:13:18;86790.80;;;
69597;BMP180;56802;51.184;-115.558;2022-08-14T12:16:18;86788.00;;;
69597;BMP180;56802;51.184;-115.558;2022-08-14T12:18:49;86790.60;;;
69597;BMP180;56802;51.184;-115.558;2022-08-14T12:21:23;86799.60;;;
69597;BMP180;56802;51.184;-115.558;2022-08-14T12:24:09;86802.00;;;
69597;BMP180;56802;51.184;-115.558;2022-08-14T12:26:59;86802.80;;;
69597;BMP180;56802;51.184;-115.558;2022-08-14T12:29:31;86807.40;;;
69597;BMP180;56802;51.184;-115.558;2022-08-14T12:32:03;86810.80;;;
69597;BMP180;56802;51.184;-115.558;2022-08-14T12:34:39;86815.20;;;
69597;BMP180;56802;51.184;-115.558;2022-08-14T12:37:11;86817.40;;;
69597;BMP180;56802;51.184;-115.558;2022-08-14T12:39:41;86816.60;;;
69597;BMP180;56802;51.184;-115.558;2022-08-14T12:42:13;86822.40;;;
69597;BMP180;56802;51.184;-115.558;2022-08-14T12:45:01;86821.40;;;
69597;BMP180;56802;51.184;-115.558;2022-08-14T12:47:31;86823.00;;;
69597;BMP180;56802;51.184;-115.558;2022-08-14T12:50:01;86821.80;;;
69597;BMP180;56802;51.184;-115.558;2022-08-14T12:52:35;86822.20;;;
69597;BMP180;56802;51.184;-115.558;2022-08-14T12:55:27;86825.60;;;
69597;BMP180;56802;51.184;-115.558;2022-08-14T12:58:18;86823.40;;;
69597;BMP180;56802;51.184;-115.558;2022-08-14T13:01:08;86822.40;;;
69597;BMP180;56802;51.184;-115.558;2022-08-14T13:03:47;86828.20;;;
69597;BMP180;56802;51.184;-115.558;2022-08-14T13:06:19;86830.40;;;
69597;BMP180;56802;51.184;-115.558;2022-08-14T13:08:51;86837.00;;;
69597;BMP180;56802;51.184;-115.558;2022-08-14T13:11:37;86832.60;;;
69597;BMP180;56802;51.184;-115.558;2022-08-14T13:14:22;86838.00;;;
69597;BMP180;56802;51.184;-115.558;2022-08-14T13:16:57;86832.60;;;
69597;BMP180;56802;51.184;-115.558;2022-08-14T13:19:28;86836.40;;;
69597;BMP180;56802;51.184;-115.558;2022-08-14T13:21:58;86836.60;;;
69597;BMP180;56802;51.184;-115.558;2022-08-14T13:24:38;86842.40;;;
69597;BMP180;56802;51.184;-115.558;2022-08-14T13:27:09;86842.40;;;
69597;BMP180;56802;51.184;-115.558;2022-08-14T13:29:41;86842.40;;;
69597;BMP180;56802;51.184;-115.558;2022-08-14T13:32:14;86839.80;;;
69597;BMP180;56802;51.184;-115.558;2022-08-14T13:34:47;86838.00;;;
69597;BMP180;56802;51.184;-115.558;2022-08-14T13:37:19;86842.60;;;
69597;BMP180;56802;51.184;-115.558;2022-08-14T13:39:52;86848.20;;;
69597;BMP180;56802;51.184;-115.558;2022-08-14T13:42:26;86848.00;;;
69597;BMP180;56802;51.184;-115.558;2022-08-14T13:45:01;86845.80;;;
69597;BMP180;56802;51.184;-115.558;2022-08-14T13:47:31;86845.60;;;
69597;BMP180;56802;51.184;-115.558;2022-08-14T13:50:05;86845.60;;;
69597;BMP180;56802;51.184;-115.558;2022-08-14T13:52:52;86843.20;;;
69597;BMP180;56802;51.184;-115.558;2022-08-14T13:55:29;86839.60;;;
69597;BMP180;56802;51.184;-115.558;2022-08-14T13:58:02;86845.20;;;
69597;BMP180;56802;51.184;-115.558;2022-08-14T14:00:36;86845.40;;;
69597;BMP180;56802;51.184;-115.558;2022-08-14T14:03:23;86845.00;;;
69597;BMP180;56802;51.184;-115.558;2022-08-14T14:05:59;86841.80;;;
69597;BMP180;56802;51.184;-115.558;2022-08-14T14:08:42;86841.60;;;
69597;BMP180;56802;51.184;-115.558;2022-08-14T14:11:18;86843.60;;;
69597;BMP180;56802;51.184;-115.558;2022-08-14T14:13:57;86840.40;;;
69597;BMP180;56802;51.184;-115.558;2022-08-14T14:16:31;86843.60;;;
69597;BMP180;56802;51.184;-115.558;2022-08-14T14:19:02;86844.80;;;
69597;BMP180;56802;51.184;-115.558;2022-08-14T14:21:37;86846.40;;;
69597;BMP180;56802;51.184;-115.558;2022-08-14T14:24:09;86847.00;;;
69597;BMP180;56802;51.184;-115.558;2022-08-14T14:26:49;86849.40;;;
69597;BMP180;56802;51.184;-115.558;2022-08-14T14:29:40;86847.40;;;
69597;BMP180;56802;51.184;-115.558;2022-08-14T14:32:29;86845.80;;;
69597;BMP180;56802;51.184;-115.558;2022-08-14T14:35:01;86842.40;;;
69597;BMP180;56802;51.184;-115.558;2022-08-14T14:37:30;86849.00;;;
69597;BMP180;56802;51.184;-115.558;2022-08-14T14:40:05;86848.40;;;
69597;BMP180;56802;51.184;-115.558;2022-08-14T14:42:58;86846.40;;;
69597;BMP180;56802;51.184;-115.558;2022-08-14T14:45:32;86842.40;;;
69597;BMP180;56802;51.184;-115.558;2022-08-14T14:48:07;86841.20;;;
69597;BMP180;56802;51.184;-115.558;2022-08-14T14:50:37;86835.00;;;
69597;BMP180;56802;51.184;-115.558;2022-08-14T14:53:07;86832.20;;;
69597;BMP180;56802;51.184;-115.558;2022-08-14T14:55:41;86829.20;;;
69597;BMP180;56802;51.184;-115.558;2022-08-14T14:58:33;86833.60;;;
69597;BMP180;56802;51.184;-115.558;2022-08-14T15:01:05;86833.40;;;
69597;BMP180;56802;51.184;-115.558;2022-08-14T15:03:39;86828.40;;;
69597;BMP180;56802;51.184;-115.558;2022-08-14T15:06:13;86820.40;;;
69597;BMP180;56802;51.184;-115.558;2022-08-14T15:08:44;86816.60;;;
69597;BMP180;56802;51.184;-115.558;2022-08-14T15:11:27;86820.40;;;
69597;BMP180;56802;51.184;-115.558;2022-08-14T15:13:59;86817.60;;;
69597;BMP180;56802;51.184;-115.558;2022-08-14T15:16:49;86814.40;;;
69597;BMP180;56802;51.184;-115.558;2022-08-14T15:19:19;86810.00;;;
69597;BMP180;56802;51.184;-115.558;2022-08-14T15:21:49;86811.00;;;
69597;BMP180;56802;51.184;-115.558;2022-08-14T15:24:19;86807.40;;;
69597;BMP180;56802;51.184;-115.558;2022-08-14T15:26:54;86800.80;;;
69597;BMP180;56802;51.184;-115.558;2022-08-14T15:29:26;86799.40;;;
69597;BMP180;56802;51.184;-115.558;2022-08-14T15:31:59;86796.20;;;
69597;BMP180;56802;51.184;-115.558;2022-08-14T15:34:36;86792.40;;;
69597;BMP180;56802;51.184;-115.558;2022-08-14T15:37:15;86798.80;;;
69597;BMP180;56802;51.184;-115.558;2022-08-14T15:39:44;86794.40;;;
69597;BMP180;56802;51.184;-115.558;2022-08-14T15:42:15;86790.80;;;
69597;BMP180;56802;51.184;-115.558;2022-08-14T15:44:48;86785.00;;;
69597;BMP180;56802;51.184;-115.558;2022-08-14T15:47:26;86781.20;;;
69597;BMP180;56802;51.184;-115.558;2022-08-14T15:50:04;86780.00;;;